createdAt,value
2019-05-14T00:04:31.419Z,101786.34
2019-05-14T00:09:35.405Z,101803.48
2019-05-14T00:14:43.176Z,101805.44
2019-05-14T00:19:45.939Z,101791.16
2019-05-14T00:24:51.899Z,101781.38
2019-05-14T00:29:55.677Z,101777.55
2019-05-14T00:35:02.053Z,101787.64
2019-05-14T00:40:05.868Z,101788.22
2019-05-14T00:45:11.572Z,101791.47
2019-05-14T00:50:15.866Z,101793.82
2019-05-14T00:55:22.108Z,101786.69
2019-05-14T01:00:25.762Z,101789.07
2019-05-14T01:05:31.989Z,101792.72
2019-05-14T01:10:35.600Z,101793.64
2019-05-14T01:15:41.482Z,101790.16
2019-05-14T01:20:45.385Z,101789.37
2019-05-14T01:25:51.451Z,101783.71
2019-05-14T01:30:55.303Z,101777.97
2019-05-14T01:36:01.798Z,101782.97
2019-05-14T01:41:05.351Z,101782.97
2019-05-14T01:46:09.428Z,101781.31
2019-05-14T01:51:13.435Z,101786.91
2019-05-14T01:56:17.629Z,101770.37
2019-05-14T02:01:22.035Z,101770.37
2019-05-14T02:06:26.052Z,101782.20
2019-05-14T02:11:32.032Z,101770.97
2019-05-14T02:16:35.980Z,101769.70
2019-05-14T02:21:42.314Z,101773.43
2019-05-14T02:26:45.740Z,101784.31
2019-05-14T02:31:50.554Z,101792.01
2019-05-14T02:36:54.924Z,101788.97
2019-05-14T02:41:59.162Z,101784.61
2019-05-14T02:47:03.358Z,101780.17
2019-05-14T02:52:10.072Z,101782.91
2019-05-14T02:57:13.288Z,101782.11
2019-05-14T03:02:18.802Z,101782.11
2019-05-14T03:07:23.266Z,101782.20
2019-05-14T03:12:30.175Z,101774.23
2019-05-14T03:17:33.041Z,101770.75
2019-05-14T03:22:46.540Z,101779.31
2019-05-14T03:27:43.074Z,101768.19
2019-05-14T03:32:52.095Z,101768.19
2019-05-14T03:37:53.126Z,101778.02
2019-05-14T03:42:59.801Z,101781.26
2019-05-14T03:48:03.131Z,101777.38
2019-05-14T03:53:10.147Z,101779.72
2019-05-14T03:58:13.218Z,101783.92
2019-05-14T04:03:19.861Z,101779.05
2019-05-14T04:08:25.283Z,101782.22
2019-05-14T04:13:32.157Z,101787.20
2019-05-14T04:18:40.481Z,101779.60
2019-05-14T04:23:50.630Z,101779.60
2019-05-14T04:29:00.394Z,101781.47
2019-05-14T04:34:04.087Z,101784.64
2019-05-14T04:39:09.410Z,101784.64
2019-05-14T04:44:13.868Z,101786.06
2019-05-14T04:49:19.949Z,101787.41
2019-05-14T04:54:23.746Z,101787.88
2019-05-14T04:59:29.981Z,101787.02
2019-05-14T05:04:33.494Z,101781.63
2019-05-14T05:09:39.706Z,101762.67
2019-05-14T05:14:43.343Z,101778.50
2019-05-14T05:19:51.231Z,101777.62
2019-05-14T05:24:53.102Z,101777.62
2019-05-14T05:29:58.969Z,101779.45
2019-05-14T05:35:03.247Z,101778.55
2019-05-14T05:40:09.123Z,101777.62
2019-05-14T05:45:13.699Z,101774.51
2019-05-14T05:50:19.299Z,101772.24
2019-05-14T05:55:23.563Z,101772.24
2019-05-14T06:00:39.459Z,101772.64
2019-05-14T06:05:42.266Z,101773.55
2019-05-14T06:10:48.768Z,101765.91
2019-05-14T06:15:52.572Z,101762.77
2019-05-14T06:20:58.629Z,101759.60
2019-05-14T06:26:02.469Z,101753.74
2019-05-14T06:31:09.755Z,101756.44
2019-05-14T06:36:14.483Z,101762.30
2019-05-14T06:41:19.144Z,101763.56
2019-05-14T06:46:23.470Z,101759.69
2019-05-14T06:51:28.859Z,101759.69
2019-05-14T06:56:32.969Z,101762.19
2019-05-14T07:01:38.456Z,101760.45
2019-05-14T07:06:42.715Z,101761.40
2019-05-14T07:11:48.948Z,101761.40
2019-05-14T07:16:52.633Z,101768.72
2019-05-14T07:21:58.311Z,101761.52
2019-05-14T07:27:02.484Z,101755.22
2019-05-14T07:32:08.951Z,101761.47
2019-05-14T07:37:12.316Z,101760.99
2019-05-14T07:42:18.358Z,101760.99
2019-05-14T07:47:22.230Z,101759.65
2019-05-14T07:52:28.300Z,101756.04
2019-05-14T07:57:32.057Z,101748.36
2019-05-14T08:02:38.046Z,101745.66
2019-05-14T08:07:42.029Z,101748.83
2019-05-14T08:12:48.325Z,101740.32
2019-05-14T08:17:51.895Z,101739.05
2019-05-14T08:22:58.164Z,101738.15
2019-05-14T08:28:01.927Z,101734.11
2019-05-14T08:33:06.059Z,101727.81
2019-05-14T08:38:12.214Z,101727.81
2019-05-14T08:43:18.304Z,101728.68
2019-05-14T08:48:21.714Z,101722.38
2019-05-14T08:53:25.789Z,101722.38
2019-05-14T08:58:30.248Z,101706.22
2019-05-14T09:03:34.390Z,101706.22
2019-05-14T09:08:38.929Z,101707.09
2019-05-14T09:13:43.553Z,101707.09
2019-05-14T09:18:49.197Z,101694.49
2019-05-14T09:23:53.501Z,101688.63
2019-05-14T09:28:58.666Z,101688.63
2019-05-14T09:34:02.897Z,101684.67
2019-05-14T09:39:11.795Z,101684.67
2019-05-14T09:44:13.834Z,101670.66
2019-05-14T09:49:18.712Z,101670.66
2019-05-14T09:54:22.834Z,101660.70
2019-05-14T09:59:28.056Z,101655.31
2019-05-14T10:04:32.237Z,101656.19
2019-05-14T10:09:38.988Z,101649.50
2019-05-14T10:14:42.090Z,101639.08
2019-05-14T10:19:46.150Z,101649.05
2019-05-14T10:24:50.182Z,101645.02
2019-05-14T10:29:54.461Z,101631.08
2019-05-14T10:34:58.976Z,101639.08
2019-05-14T10:40:03.572Z,101609.55
2019-05-14T10:45:12.475Z,101628.83
2019-05-14T10:50:14.265Z,101621.28
2019-05-14T10:55:18.616Z,101605.36
2019-05-14T11:00:23.043Z,101620.84
2019-05-14T11:05:28.149Z,101613.59
2019-05-14T11:10:32.267Z,101622.01
2019-05-14T11:15:39.258Z,101619.13
2019-05-14T11:20:42.496Z,101608.64
2019-05-14T11:25:48.781Z,101605.50
2019-05-14T11:30:52.649Z,101591.84
2019-05-14T11:35:58.491Z,101577.34
2019-05-14T11:41:02.779Z,101577.34
2019-05-14T11:46:08.635Z,101564.30
2019-05-14T11:51:12.950Z,101581.40
2019-05-14T11:56:19.080Z,101561.63
2019-05-14T12:01:22.811Z,101557.33
2019-05-14T12:06:26.827Z,101545.75
2019-05-14T12:11:30.939Z,101545.83
2019-05-14T12:16:35.124Z,101549.34
2019-05-14T12:21:39.850Z,101538.45
2019-05-14T12:26:44.087Z,101538.45
2019-05-14T12:31:50.576Z,101513.38
2019-05-14T12:36:54.126Z,101513.38
2019-05-14T12:41:58.264Z,101517.59
2019-05-14T12:47:02.331Z,101513.31
2019-05-14T12:52:21.496Z,101510.02
2019-05-14T12:57:12.368Z,101510.02
2019-05-14T13:02:18.743Z,101504.55
2019-05-14T13:07:22.427Z,101497.41
2019-05-14T13:12:26.519Z,101483.72
2019-05-14T13:17:30.553Z,101482.50
2019-05-14T13:22:42.567Z,101470.58
2019-05-14T13:27:40.402Z,101457.13
2019-05-14T13:32:44.477Z,101457.13
2019-05-14T13:37:49.038Z,101439.42
2019-05-14T13:42:53.343Z,101439.42
2019-05-14T13:47:59.112Z,101441.03
2019-05-14T13:53:09.446Z,101432.73
2019-05-14T13:58:09.700Z,101417.33
2019-05-14T14:03:13.987Z,101426.00
2019-05-14T14:08:19.337Z,101433.59
2019-05-14T14:13:23.591Z,101423.36
2019-05-14T14:18:29.338Z,101420.84
2019-05-14T14:23:33.755Z,101421.80
2019-05-14T14:28:39.673Z,101421.80
2019-05-14T14:33:43.641Z,101410.07
2019-05-14T14:38:49.486Z,101400.17
2019-05-14T14:43:55.191Z,101400.17
2019-05-14T14:49:02.563Z,101405.89
2019-05-14T14:54:10.805Z,101400.65
2019-05-14T14:59:11.051Z,101385.84
2019-05-14T15:04:15.164Z,101385.84
2019-05-14T15:09:19.291Z,101390.77
2019-05-14T15:14:23.369Z,101392.34
2019-05-14T15:19:29.795Z,101387.83
2019-05-14T15:24:33.253Z,101387.83
2019-05-14T15:29:39.053Z,101373.27
2019-05-14T15:34:43.215Z,101376.69
2019-05-14T15:39:49.077Z,101374.70
2019-05-14T15:44:56.007Z,101355.65
2019-05-14T15:49:59.587Z,101355.65
2019-05-14T15:55:04.416Z,101345.25
2019-05-14T16:00:09.626Z,101358.75
2019-05-14T16:05:13.816Z,101358.75
2019-05-14T16:10:21.577Z,101346.54
2019-05-14T16:15:23.758Z,101338.73
2019-05-14T16:20:29.584Z,101338.73
2019-05-14T16:25:33.621Z,101336.91
2019-05-14T16:30:39.723Z,101313.27
2019-05-14T16:35:44.083Z,101328.92
2019-05-14T16:40:49.270Z,101320.19
2019-05-14T16:45:53.404Z,101322.95
2019-05-14T16:50:58.436Z,101324.23
2019-05-14T16:56:02.628Z,101324.23
2019-05-14T17:01:09.239Z,101313.70
2019-05-14T17:06:12.691Z,101310.58
2019-05-14T17:11:18.238Z,101310.58
2019-05-14T17:16:22.463Z,101316.68
2019-05-14T17:21:26.537Z,101314.56
2019-05-14T17:26:32.759Z,101314.56
2019-05-14T17:31:39.123Z,101309.55
2019-05-14T17:36:42.696Z,101296.29
2019-05-14T17:41:48.485Z,101308.45
2019-05-14T17:46:52.727Z,101309.59
2019-05-14T17:51:58.116Z,101303.88
2019-05-14T17:57:02.420Z,101311.67
2019-05-14T18:02:08.717Z,101318.70
2019-05-14T18:07:12.425Z,101313.38
2019-05-14T18:12:18.985Z,101314.24
2019-05-14T18:17:22.335Z,101323.97
2019-05-14T18:22:28.660Z,101323.97
2019-05-14T18:27:32.219Z,101327.16
2019-05-14T18:32:36.342Z,101328.89
2019-05-14T18:37:40.389Z,101326.25
2019-05-14T18:42:44.477Z,101326.83
2019-05-14T18:47:52.130Z,101330.35
2019-05-14T18:52:56.325Z,101326.89
2019-05-14T18:58:01.117Z,101328.39
2019-05-14T19:03:05.367Z,101328.48
2019-05-14T19:08:09.382Z,101328.48
2019-05-14T19:13:13.409Z,101337.44
2019-05-14T19:18:19.205Z,101339.17
2019-05-14T19:23:23.507Z,101338.75
2019-05-14T19:28:28.297Z,101338.94
2019-05-14T19:33:33.038Z,101340.39
2019-05-14T19:38:38.893Z,101335.15
2019-05-14T19:43:42.930Z,101333.42
2019-05-14T19:48:48.393Z,101328.56
2019-05-14T19:53:52.683Z,101328.56
2019-05-14T19:58:56.762Z,101335.45
2019-05-14T20:04:00.774Z,101335.45
2019-05-14T20:09:09.516Z,101341.43
2019-05-14T20:14:13.191Z,101341.53
2019-05-14T20:19:19.237Z,101326.04
2019-05-14T20:24:23.042Z,101326.04
2019-05-14T20:29:27.071Z,101340.38
2019-05-14T20:34:31.099Z,101340.38
2019-05-14T20:39:35.163Z,101332.28
2019-05-14T20:44:39.265Z,101326.56
2019-05-14T20:49:43.291Z,101324.25
2019-05-14T20:54:47.311Z,101325.69
2019-05-14T20:59:51.498Z,101332.44
2019-05-14T21:04:56.295Z,101311.36
2019-05-14T21:10:01.487Z,101327.91
2019-05-14T21:15:08.939Z,101327.91
2019-05-14T21:20:12.990Z,101319.91
2019-05-14T21:25:18.418Z,101318.95
2019-05-14T21:30:22.845Z,101318.95
2019-05-14T21:35:28.960Z,101313.17
2019-05-14T21:40:32.802Z,101310.09
2019-05-14T21:45:38.354Z,101292.07
2019-05-14T21:50:42.702Z,101304.28
2019-05-14T21:55:47.898Z,101296.51
2019-05-14T22:00:55.228Z,101300.65
2019-05-14T22:05:59.496Z,101299.30
2019-05-14T22:11:03.810Z,101272.75
2019-05-14T22:16:08.526Z,101272.33
2019-05-14T22:21:12.803Z,101284.95
2019-05-14T22:26:18.593Z,101272.81
2019-05-14T22:31:22.919Z,101269.16
2019-05-14T22:36:29.337Z,101270.98
2019-05-14T22:41:32.870Z,101270.98
2019-05-14T22:46:39.986Z,101266.08
2019-05-14T22:51:43.244Z,101269.64
2019-05-14T22:56:48.159Z,101266.88
2019-05-14T23:01:52.496Z,101266.88
2019-05-14T23:06:58.597Z,101264.69
2019-05-14T23:12:02.383Z,101264.69
2019-05-14T23:17:08.131Z,101255.98
2019-05-14T23:22:12.472Z,101248.92
2019-05-14T23:27:18.721Z,101246.80
2019-05-14T23:32:22.537Z,101247.44
2019-05-14T23:37:28.960Z,101239.16
2019-05-14T23:42:32.675Z,101238.67
2019-05-14T23:47:38.271Z,101224.45
2019-05-14T23:52:42.547Z,101238.83
2019-05-14T23:57:48.105Z,101239.63
